Time;durP1;ratioP1;P1;durP2;ratioP2;P2;SDS_P1;SDS_P2;PMS_P1;PMS_P2;Temp;Humidity;BMP_temperature;BMP_pressure;BME280_temperature;BME280_humidity;BME280_pressure;Samples;Min_cycle;Max_cycle;Signal;HPM_P1;HPM_P2
2022/09/26 00:01:14;;;;;;;9.23;5.90;;;10.80;84.90;;;;;;5074313;28;20178;-38
2022/09/26 00:03:46;;;;;;;8.73;4.35;;;10.90;84.70;;;;;;5074602;28;20540;-37
2022/09/26 00:06:12;;;;;;;9.20;4.50;;;10.90;84.50;;;;;;5074451;28;20052;-39
2022/09/26 00:08:39;;;;;;;6.57;4.07;;;10.80;84.30;;;;;;5074248;28;20048;-37
2022/09/26 00:11:07;;;;;;;10.20;3.80;;;10.70;85.00;;;;;;5072916;28;20034;-37
2022/09/26 00:13:35;;;;;;;7.75;4.57;;;10.70;85.20;;;;;;5074039;28;20071;-38
2022/09/26 00:16:01;;;;;;;17.75;5.60;;;10.70;85.20;;;;;;5074053;28;20032;-38
2022/09/26 00:18:27;;;;;;;11.73;4.68;;;10.70;85.50;;;;;;5074005;28;20020;-38
2022/09/26 00:20:52;;;;;;;9.48;3.85;;;10.70;85.30;;;;;;5073788;28;20021;-38
2022/09/26 00:23:18;;;;;;;9.35;4.57;;;10.80;85.30;;;;;;5073818;28;20024;-38
2022/09/26 00:25:49;;;;;;;7.07;3.50;;;10.80;85.30;;;;;;5073877;28;20515;-38
2022/09/26 00:28:15;;;;;;;11.27;3.80;;;10.80;85.30;;;;;;5073800;28;20020;-38
2022/09/26 00:30:41;;;;;;;7.38;3.63;;;10.80;85.10;;;;;;5072961;28;20029;-43
2022/09/26 00:33:07;;;;;;;8.43;5.03;;;10.80;85.20;;;;;;5073704;28;20051;-38
2022/09/26 00:35:32;;;;;;;10.27;4.70;;;10.80;85.20;;;;;;5073993;28;20035;-39
2022/09/26 00:37:58;;;;;;;6.50;3.80;;;10.80;85.10;;;;;;5073879;28;20524;-38
2022/09/26 00:40:25;;;;;;;7.15;3.72;;;10.80;84.90;;;;;;5073197;28;20079;-39
2022/09/26 00:42:52;;;;;;;10.90;4.57;;;10.80;85.00;;;;;;5073711;28;20433;-40
2022/09/26 00:45:18;;;;;;;5.40;3.20;;;10.80;85.20;;;;;;5073421;28;20104;-38
2022/09/26 00:47:58;;;;;;;8.45;4.45;;;10.80;85.50;;;;;;5073510;28;20056;-37
2022/09/26 00:50:44;;;;;;;6.78;3.63;;;10.70;85.50;;;;;;5073471;28;20063;-38
2022/09/26 00:53:22;;;;;;;4.93;3.63;;;10.70;85.60;;;;;;5073536;28;20051;-37
2022/09/26 00:55:53;;;;;;;10.68;4.45;;;10.70;85.50;;;;;;5073205;28;20029;-38
2022/09/26 00:58:34;;;;;;;8.27;4.55;;;10.70;85.40;;;;;;5073323;28;20028;-37
2022/09/26 01:01:00;;;;;;;5.65;3.40;;;10.80;85.60;;;;;;5073284;28;20055;-39
2022/09/26 01:03:29;;;;;;;11.60;4.20;;;10.70;85.60;;;;;;5073035;28;20487;-38
2022/09/26 01:05:55;;;;;;;7.82;3.13;;;10.80;85.80;;;;;;5073384;28;20088;-37
2022/09/26 01:08:27;;;;;;;9.20;3.97;;;10.80;85.90;;;;;;5072940;28;20047;-42
2022/09/26 01:10:52;;;;;;;7.00;4.20;;;10.80;85.90;;;;;;5073186;28;20111;-39
2022/09/26 01:13:20;;;;;;;6.93;4.28;;;10.80;85.70;;;;;;5073150;28;20107;-39
2022/09/26 01:15:46;;;;;;;7.50;4.63;;;10.90;85.40;;;;;;5072871;28;20028;-38
2022/09/26 01:18:12;;;;;;;6.10;3.97;;;10.80;85.20;;;;;;5072834;28;20031;-40
2022/09/26 01:21:19;;;;;;;5.93;3.60;;;10.90;85.40;;;;;;5071471;28;20032;-48
2022/09/26 01:24:12;;;;;;;11.38;4.00;;;11.00;85.00;;;;;;5072797;28;20020;-47
2022/09/26 01:27:07;;;;;;;6.10;3.38;;;11.20;84.90;;;;;;5073071;28;20071;-51
2022/09/26 01:29:52;;;;;;;14.27;4.15;;;11.10;84.60;;;;;;5056804;28;20085;-47
2022/09/26 01:32:49;;;;;;;6.93;3.92;;;11.10;84.60;;;;;;5073417;28;20349;-48
2022/09/26 01:35:26;;;;;;;10.48;4.75;;;11.10;84.70;;;;;;5073398;28;20025;-47
2022/09/26 01:38:40;;;;;;;8.43;3.58;;;11.20;84.80;;;;;;5072999;28;20060;-47
2022/09/26 01:42:00;;;;;;;8.02;3.72;;;11.10;84.60;;;;;;5072772;28;20066;-47
2022/09/26 01:44:29;;;;;;;10.30;3.95;;;11.20;84.70;;;;;;5049776;28;20032;-48
2022/09/26 01:47:16;;;;;;;8.05;3.33;;;11.20;84.90;;;;;;5072984;28;20025;-47
2022/09/26 01:50:07;;;;;;;8.68;3.50;;;11.20;84.70;;;;;;5072668;28;20095;-48
2022/09/26 01:52:49;;;;;;;13.10;3.70;;;11.10;85.20;;;;;;5072140;28;20021;-49
2022/09/26 01:55:23;;;;;;;10.05;5.03;;;11.10;85.20;;;;;;5072536;28;20071;-48
2022/09/26 01:58:00;;;;;;;6.97;3.78;;;11.00;85.50;;;;;;5072320;28;20049;-48
2022/09/26 02:00:26;;;;;;;6.55;4.03;;;11.10;85.40;;;;;;5071953;28;20112;-48
2022/09/26 02:02:54;;;;;;;7.03;3.88;;;11.10;85.50;;;;;;5074717;28;20437;-47
2022/09/26 02:05:45;;;;;;;7.75;4.15;;;11.20;85.00;;;;;;5076046;28;20027;-46
2022/09/26 02:08:23;;;;;;;6.72;3.95;;;11.30;84.90;;;;;;5075920;28;20107;-49
2022/09/26 02:10:53;;;;;;;6.10;3.38;;;11.30;84.60;;;;;;5076251;28;20135;-50
2022/09/26 02:13:29;;;;;;;7.00;3.50;;;11.30;84.70;;;;;;5075157;28;20032;-48
2022/09/26 02:16:04;;;;;;;7.80;3.33;;;11.40;84.60;;;;;;5074667;28;20037;-48
2022/09/26 02:18:52;;;;;;;12.95;4.38;;;11.30;84.60;;;;;;5076032;28;20356;-47
2022/09/26 02:21:23;;;;;;;11.07;4.10;;;11.40;84.50;;;;;;5075702;28;20060;-49
2022/09/26 02:23:50;;;;;;;13.02;4.72;;;11.40;84.40;;;;;;5075822;28;20051;-51
2022/09/26 02:26:17;;;;;;;10.82;4.60;;;11.40;84.40;;;;;;5075650;28;20091;-48
2022/09/26 02:28:43;;;;;;;9.00;5.07;;;11.40;84.60;;;;;;5076151;28;20024;-48
2022/09/26 02:31:11;;;;;;;11.80;5.70;;;11.40;84.50;;;;;;5075878;28;20198;-48
2022/09/26 02:33:37;;;;;;;7.82;4.45;;;11.30;84.70;;;;;;5075920;28;20044;-47
2022/09/26 02:36:07;;;;;;;8.50;4.32;;;11.30;84.70;;;;;;5076058;28;20047;-46
2022/09/26 02:38:33;;;;;;;9.23;4.28;;;11.30;85.00;;;;;;5075922;28;20024;-49
2022/09/26 02:41:10;;;;;;;10.15;4.95;;;11.30;85.00;;;;;;5075563;28;20052;-47
2022/09/26 02:44:11;;;;;;;9.68;4.78;;;11.40;84.80;;;;;;5076492;28;20082;-50
2022/09/26 02:47:14;;;;;;;8.90;4.72;;;11.30;84.90;;;;;;5062548;28;20055;-47
2022/09/26 02:49:52;;;;;;;9.43;4.68;;;11.30;85.30;;;;;;5076041;28;20111;-50
2022/09/26 02:52:51;;;;;;;9.70;5.05;;;11.30;85.60;;;;;;5075648;28;20056;-48
2022/09/26 02:55:21;;;;;;;8.57;5.63;;;11.30;85.60;;;;;;5075917;28;20035;-47
2022/09/26 02:58:25;;;;;;;12.25;4.95;;;11.30;85.70;;;;;;5076325;28;20032;-47
2022/09/26 03:01:09;;;;;;;7.97;5.63;;;11.30;85.50;;;;;;5075367;28;20189;-47
2022/09/26 03:03:47;;;;;;;9.13;6.32;;;11.30;85.60;;;;;;5075945;28;20052;-47
2022/09/26 03:06:18;;;;;;;12.00;6.05;;;11.30;85.70;;;;;;5075586;28;20032;-46
2022/09/26 03:08:47;;;;;;;13.15;5.47;;;11.20;85.90;;;;;;5075689;28;20028;-47
2022/09/26 03:11:19;;;;;;;6.82;5.05;;;11.20;86.00;;;;;;5075890;28;20039;-49
2022/09/26 03:13:46;;;;;;;8.32;5.13;;;11.30;85.90;;;;;;5073881;28;20066;-48
2022/09/26 03:16:13;;;;;;;7.95;4.65;;;11.30;85.90;;;;;;5075672;28;20029;-47
2022/09/26 03:18:52;;;;;;;8.70;5.85;;;11.20;86.10;;;;;;5076674;28;20357;-47
2022/09/26 03:21:19;;;;;;;18.20;6.10;;;11.30;86.00;;;;;;5073832;28;20113;-47
2022/09/26 03:23:45;;;;;;;7.15;5.18;;;11.20;86.00;;;;;;5075492;28;20035;-47
2022/09/26 03:26:16;;;;;;;8.32;4.93;;;11.30;86.20;;;;;;5075793;28;20043;-49
2022/09/26 03:28:41;;;;;;;;;;;11.30;85.80;;;;;;5075746;28;20029;-47
2022/09/26 03:31:07;;;;;;;8.18;5.50;;;11.30;85.70;;;;;;5075208;28;20241;-47
2022/09/26 03:33:33;;;;;;;12.38;4.80;;;11.40;85.80;;;;;;5075290;28;20085;-47
2022/09/26 03:35:58;;;;;;;10.23;6.05;;;11.30;85.60;;;;;;5073573;28;20031;-47
2022/09/26 03:38:25;;;;;;;7.13;4.63;;;11.30;85.60;;;;;;5074840;28;20029;-46
2022/09/26 03:40:51;;;;;;;11.25;5.70;;;11.30;85.70;;;;;;5074440;28;20520;-46
2022/09/26 03:43:17;;;;;;;11.68;4.93;;;11.40;85.60;;;;;;5075011;28;20078;-48
2022/09/26 03:45:42;;;;;;;12.80;5.38;;;11.40;85.30;;;;;;5075008;28;20464;-46
2022/09/26 03:48:08;;;;;;;9.57;4.70;;;11.40;85.40;;;;;;5075063;28;20028;-46
2022/09/26 03:50:34;;;;;;;8.00;4.47;;;11.40;85.10;;;;;;5073539;28;20054;-46
2022/09/26 03:53:00;;;;;;;11.30;5.15;;;11.40;85.20;;;;;;5074802;28;20035;-46
2022/09/26 03:55:26;;;;;;;10.38;5.72;;;11.40;85.40;;;;;;5074486;28;20028;-47
2022/09/26 03:57:52;;;;;;;11.20;6.18;;;11.40;85.30;;;;;;5074374;28;20032;-48
2022/09/26 04:00:17;;;;;;;8.45;5.47;;;11.50;85.10;;;;;;5074219;28;20036;-47
2022/09/26 04:02:43;;;;;;;9.32;5.63;;;11.50;85.10;;;;;;5074722;28;20028;-48
2022/09/26 04:05:09;;;;;;;9.80;5.50;;;11.50;85.00;;;;;;5074280;28;20109;-47
2022/09/26 04:07:34;;;;;;;7.95;5.38;;;11.60;84.80;;;;;;5074299;28;20017;-48
2022/09/26 04:10:00;;;;;;;7.40;5.63;;;11.60;84.80;;;;;;5074220;28;20025;-47
2022/09/26 04:12:26;;;;;;;8.35;5.32;;;11.50;85.00;;;;;;5074403;28;20044;-46
2022/09/26 04:14:53;;;;;;;11.05;5.65;;;11.50;85.20;;;;;;5073944;28;20028;-47
2022/09/26 04:17:19;;;;;;;8.35;5.55;;;11.50;85.00;;;;;;5072811;28;20043;-47
2022/09/26 04:19:44;;;;;;;9.90;6.10;;;11.50;85.00;;;;;;5074107;28;20452;-47
2022/09/26 04:22:10;;;;;;;10.82;5.68;;;11.40;85.10;;;;;;5073955;28;20028;-48
2022/09/26 04:24:36;;;;;;;11.43;5.82;;;11.40;85.20;;;;;;5071722;28;20077;-47
2022/09/26 04:27:02;;;;;;;11.27;6.03;;;11.40;85.10;;;;;;5073820;28;20147;-46
2022/09/26 04:29:28;;;;;;;14.02;6.15;;;11.40;85.10;;;;;;5073814;28;20027;-47
2022/09/26 04:31:54;;;;;;;10.77;5.93;;;11.40;85.20;;;;;;5073924;28;20028;-47
2022/09/26 04:34:23;;;;;;;13.05;5.75;;;11.40;85.20;;;;;;5073920;28;20024;-47
2022/09/26 04:36:50;;;;;;;12.68;5.95;;;11.30;85.40;;;;;;5073805;28;20032;-47
2022/09/26 04:39:16;;;;;;;10.82;5.50;;;11.40;85.30;;;;;;5073471;28;20575;-47
2022/09/26 04:41:42;;;;;;;7.07;4.90;;;11.40;85.40;;;;;;5073581;28;20091;-46
2022/09/26 04:44:09;;;;;;;13.50;6.95;;;11.30;85.50;;;;;;5073570;28;20021;-47
2022/09/26 04:46:34;;;;;;;9.05;5.82;;;11.30;85.60;;;;;;5073484;28;20095;-49
2022/09/26 04:49:00;;;;;;;14.68;6.57;;;11.30;85.70;;;;;;5073408;28;20060;-47
2022/09/26 04:51:28;;;;;;;8.48;5.75;;;11.30;85.40;;;;;;5073255;28;20028;-48
2022/09/26 04:53:54;;;;;;;12.45;5.80;;;11.30;85.40;;;;;;5073419;28;20123;-48
2022/09/26 04:56:22;;;;;;;10.63;6.22;;;11.30;85.50;;;;;;5073281;28;20536;-46
2022/09/26 04:58:48;;;;;;;15.05;6.75;;;11.30;85.50;;;;;;5073274;28;20024;-46
2022/09/26 05:01:18;;;;;;;12.23;6.82;;;11.30;85.70;;;;;;5073104;28;20032;-50
2022/09/26 05:03:44;;;;;;;13.30;7.43;;;11.30;85.40;;;;;;5073295;28;20052;-48
2022/09/26 05:06:10;;;;;;;10.52;6.53;;;11.30;85.50;;;;;;5073087;28;20028;-46
2022/09/26 05:08:41;;;;;;;9.50;6.63;;;11.30;85.50;;;;;;5073027;28;20025;-46
2022/09/26 05:11:08;;;;;;;15.75;6.97;;;11.30;85.60;;;;;;5073019;28;20086;-47
2022/09/26 17:25:47;;;;;;;5.13;4.35;;;10.90;94.00;;;;;;5111396;27;20192;-48
2022/09/26 17:28:25;;;;;;;6.40;4.60;;;10.90;94.00;;;;;;5111058;28;20032;-48
2022/09/26 17:30:51;;;;;;;9.48;5.22;;;11.00;94.00;;;;;;5111543;28;20020;-47
2022/09/26 17:33:17;;;;;;;8.10;5.40;;;11.00;94.00;;;;;;5111358;28;20063;-48
2022/09/26 17:35:43;;;;;;;7.35;4.90;;;11.10;93.90;;;;;;5111300;28;20023;-47
2022/09/26 17:38:11;;;;;;;8.77;6.10;;;11.10;93.80;;;;;;5110548;28;20490;-48
2022/09/26 17:40:37;;;;;;;7.50;5.78;;;11.10;93.80;;;;;;5110396;28;20065;-48
2022/09/26 17:43:04;;;;;;;7.45;5.10;;;11.10;93.70;;;;;;5110433;28;20028;-48
2022/09/26 17:45:32;;;;;;;7.63;5.20;;;11.00;93.70;;;;;;5110405;28;20532;-48
2022/09/26 17:48:22;;;;;;;9.45;6.43;;;11.00;93.80;;;;;;5108854;28;20020;-49
2022/09/26 17:50:47;;;;;;;5.47;4.35;;;11.10;93.80;;;;;;5110669;28;20028;-49
2022/09/26 17:53:19;;;;;;;5.38;4.78;;;11.10;93.80;;;;;;5110426;28;20031;-52
2022/09/26 17:55:46;;;;;;;6.43;4.90;;;11.10;93.60;;;;;;5110410;28;20042;-49
2022/09/26 17:58:12;;;;;;;7.55;4.70;;;11.10;93.60;;;;;;5110579;28;20402;-53
2022/09/26 18:00:42;;;;;;;10.07;5.35;;;11.10;93.50;;;;;;5110054;28;20030;-48
2022/09/26 18:03:15;;;;;;;6.55;4.40;;;11.10;93.50;;;;;;5110122;27;20191;-49
2022/09/26 18:05:42;;;;;;;5.22;4.70;;;11.10;93.30;;;;;;5109855;28;20124;-50
2022/09/26 18:08:14;;;;;;;9.75;4.60;;;11.20;93.40;;;;;;5109714;28;20032;-49
2022/09/26 18:10:48;;;;;;;7.50;5.03;;;11.20;93.30;;;;;;5109839;28;20420;-52
2022/09/26 18:13:16;;;;;;;7.00;5.07;;;11.10;93.30;;;;;;5110011;28;20539;-49
2022/09/26 18:15:41;;;;;;;6.95;5.68;;;11.20;93.30;;;;;;5110267;28;20027;-50
2022/09/26 18:18:18;;;;;;;5.38;3.80;;;11.10;93.30;;;;;;5110340;28;20030;-49
2022/09/26 18:20:47;;;;;;;8.93;5.03;;;11.10;93.40;;;;;;5110363;28;20032;-49
2022/09/26 18:23:21;;;;;;;8.15;4.10;;;11.20;93.30;;;;;;5110408;28;20024;-50
2022/09/26 18:25:50;;;;;;;7.05;4.78;;;11.10;93.20;;;;;;5109856;28;20036;-49
2022/09/26 18:28:19;;;;;;;10.95;5.53;;;11.10;93.30;;;;;;5110082;28;20605;-52
2022/09/26 18:30:47;;;;;;;8.50;5.22;;;11.10;93.30;;;;;;5091411;28;20069;-53
2022/09/26 18:33:13;;;;;;;10.65;4.22;;;11.10;93.30;;;;;;5109125;28;20379;-49
2022/09/26 18:35:41;;;;;;;7.38;3.92;;;11.10;93.20;;;;;;5103687;28;20024;-49
2022/09/26 18:38:07;;;;;;;4.85;4.45;;;11.00;93.30;;;;;;5095956;28;20353;-51
2022/09/26 18:40:42;;;;;;;5.60;3.83;;;11.10;93.40;;;;;;5095836;28;20028;-49
2022/09/26 18:43:15;;;;;;;7.20;3.97;;;11.00;93.40;;;;;;5096228;28;20016;-49
2022/09/26 18:45:41;;;;;;;5.40;3.75;;;11.10;93.30;;;;;;5095745;28;20048;-49
2022/09/26 18:48:13;;;;;;;8.57;4.32;;;11.10;93.20;;;;;;5095938;28;20505;-51
2022/09/26 18:50:39;;;;;;;8.07;3.90;;;11.20;93.40;;;;;;5095659;28;20024;-50
2022/09/26 18:53:19;;;;;;;7.20;4.53;;;11.10;93.30;;;;;;5095674;28;20028;-51
2022/09/26 18:58:31;;;;;;;11.95;4.90;;;11.10;93.30;;;;;;5096463;28;20082;-50
2022/09/26 19:01:00;;;;;;;7.07;5.10;;;11.10;93.50;;;;;;5096827;28;20028;-53
2022/09/26 19:03:29;;;;;;;10.87;5.87;;;11.20;93.50;;;;;;5096040;28;20027;-53
2022/09/26 19:06:02;;;;;;;6.88;4.93;;;11.10;93.50;;;;;;5095872;28;20024;-49
2022/09/26 19:08:34;;;;;;;6.88;5.57;;;11.10;93.60;;;;;;5095586;28;20491;-50
2022/09/26 19:11:09;;;;;;;9.07;6.60;;;11.20;93.60;;;;;;5077911;28;20052;-49
2022/09/26 19:13:35;;;;;;;8.98;5.30;;;11.10;93.70;;;;;;5094290;28;20020;-50
2022/09/26 19:16:01;;;;;;;8.60;5.85;;;11.10;93.70;;;;;;5095205;28;20421;-51
2022/09/26 19:18:26;;;;;;;8.45;5.28;;;11.10;93.80;;;;;;5094923;28;20059;-50
2022/09/26 19:20:52;;;;;;;8.18;5.80;;;11.10;93.90;;;;;;5095057;28;20078;-51
2022/09/26 19:23:18;;;;;;;9.77;6.15;;;11.10;93.80;;;;;;5094916;28;20409;-49
2022/09/26 19:25:45;;;;;;;8.55;5.53;;;11.20;93.90;;;;;;5095061;28;20075;-51
2022/09/26 19:28:22;;;;;;;11.35;7.05;;;11.20;93.90;;;;;;5093432;28;20035;-50
2022/09/26 19:30:48;;;;;;;10.80;7.05;;;11.20;93.90;;;;;;5094805;28;20032;-48
2022/09/26 19:33:14;;;;;;;12.77;6.70;;;11.20;93.90;;;;;;5093482;28;20077;-49
2022/09/26 19:35:40;;;;;;;13.00;8.07;;;11.20;93.90;;;;;;5094839;28;20024;-50
2022/09/26 19:38:22;;;;;;;11.65;8.68;;;11.20;93.80;;;;;;5094934;28;20224;-50
2022/09/26 19:40:53;;;;;;;12.35;8.43;;;11.30;93.80;;;;;;5095673;28;20032;-50
2022/09/26 19:43:20;;;;;;;12.32;7.97;;;11.30;93.70;;;;;;5096118;28;20036;-50
2022/09/26 19:45:50;;;;;;;11.52;8.65;;;11.30;93.60;;;;;;5094521;28;20544;-50
2022/09/26 19:48:22;;;;;;;16.58;9.68;;;11.30;93.70;;;;;;5095662;28;20035;-51
2022/09/26 19:50:48;;;;;;;15.98;9.07;;;11.30;93.70;;;;;;5096282;28;20028;-49
2022/09/26 19:53:16;;;;;;;13.75;8.35;;;11.30;93.80;;;;;;5095859;28;20020;-48
2022/09/26 19:55:42;;;;;;;14.52;9.95;;;11.30;93.80;;;;;;5094293;28;20108;-50
2022/09/26 19:58:19;;;;;;;11.60;8.50;;;11.30;93.80;;;;;;5094412;28;20107;-48
2022/09/26 20:00:54;;;;;;;13.88;8.80;;;11.30;93.80;;;;;;5094405;28;20096;-52
2022/09/26 20:03:41;;;;;;;13.57;8.43;;;11.20;93.90;;;;;;5094216;28;20024;-49
2022/09/26 20:06:14;;;;;;;16.27;9.98;;;11.20;93.80;;;;;;5095692;28;20371;-50
2022/09/26 20:08:40;;;;;;;16.25;8.73;;;11.20;93.80;;;;;;5095109;28;20103;-49
2022/09/26 20:11:06;;;;;;;14.15;9.50;;;11.20;93.80;;;;;;5092887;28;20040;-49
2022/09/26 20:16:18;;;;;;;15.10;9.85;;;11.30;93.70;;;;;;5072758;28;20537;-50
2022/09/26 20:18:47;;;;;;;16.23;9.13;;;11.30;93.70;;;;;;5094275;28;20024;-52
2022/09/26 20:21:13;;;;;;;12.48;8.68;;;11.30;93.60;;;;;;5093960;28;20028;-49
2022/09/26 20:23:42;;;;;;;15.88;8.65;;;11.30;93.70;;;;;;5093397;28;20044;-50
2022/09/26 20:26:12;;;;;;;12.10;8.20;;;11.30;93.70;;;;;;5094115;28;20012;-50
2022/09/26 20:28:38;;;;;;;;;;;11.30;93.60;;;;;;5092856;28;20074;-50
2022/09/26 20:31:23;;;;;;;11.90;8.10;;;11.30;93.50;;;;;;5094007;28;19904;-49
2022/09/26 20:33:50;;;;;;;14.07;8.40;;;11.30;93.60;;;;;;5092783;28;20024;-49
2022/09/26 20:36:27;;;;;;;15.77;9.75;;;11.30;93.60;;;;;;5093593;28;20028;-49
2022/09/26 20:38:54;;;;;;;19.38;10.68;;;11.40;93.60;;;;;;5093729;28;20067;-51
2022/09/26 20:41:26;;;;;;;15.55;9.63;;;11.40;93.50;;;;;;5093446;28;20049;-50
2022/09/26 20:43:57;;;;;;;14.85;10.32;;;11.30;93.30;;;;;;5093756;28;20217;-50
2022/09/26 20:46:23;;;;;;;19.73;10.18;;;11.30;93.40;;;;;;5093714;28;20031;-48
2022/09/26 20:48:49;;;;;;;21.40;11.25;;;11.30;93.40;;;;;;5093273;28;20032;-48
2022/09/26 20:51:23;;;;;;;19.42;10.52;;;11.40;93.40;;;;;;5092045;28;20020;-48
2022/09/26 20:53:49;;;;;;;19.60;11.27;;;11.40;93.40;;;;;;5075577;28;20043;-48
2022/09/26 20:56:17;;;;;;;19.13;11.45;;;11.40;93.30;;;;;;5093714;28;20095;-48
2022/09/26 20:58:43;;;;;;;17.58;10.38;;;11.40;93.40;;;;;;5093144;28;20063;-48
2022/09/26 21:01:13;;;;;;;17.45;9.63;;;11.40;93.30;;;;;;5093116;28;20047;-50
2022/09/26 21:03:42;;;;;;;14.20;10.15;;;11.30;93.40;;;;;;5093166;28;20035;-51
2022/09/26 21:06:15;;;;;;;16.17;10.45;;;11.30;93.50;;;;;;5093134;28;20040;-48
2022/09/26 21:08:41;;;;;;;16.50;10.35;;;11.40;93.50;;;;;;5093280;28;20460;-47
2022/09/26 21:11:13;;;;;;;18.20;10.73;;;11.40;93.40;;;;;;5093034;28;20034;-50
2022/09/26 21:13:40;;;;;;;22.10;10.68;;;11.40;93.30;;;;;;5093276;28;20036;-51
2022/09/26 21:16:12;;;;;;;22.70;12.30;;;11.30;93.20;;;;;;5093183;28;20363;-49
2022/09/26 21:18:39;;;;;;;21.77;10.85;;;11.40;93.20;;;;;;5093021;28;20031;-47
2022/09/26 21:21:07;;;;;;;22.35;11.18;;;11.40;93.10;;;;;;5093123;28;20376;-50
2022/09/26 21:23:41;;;;;;;24.75;11.40;;;11.40;93.10;;;;;;5092831;28;20024;-48
2022/09/26 21:26:27;;;;;;;19.35;12.90;;;11.40;93.10;;;;;;5092921;28;20073;-48
2022/09/26 21:28:54;;;;;;;17.60;11.27;;;11.30;93.20;;;;;;5093517;28;20024;-49
2022/09/26 21:31:24;;;;;;;19.38;11.15;;;11.30;93.30;;;;;;5092829;28;20020;-48
2022/09/26 21:33:51;;;;;;;23.10;11.90;;;11.30;93.30;;;;;;5093220;28;20074;-48
2022/09/26 21:36:19;;;;;;;19.02;10.65;;;11.30;93.40;;;;;;5093122;28;20032;-48
2022/09/26 21:38:45;;;;;;;21.60;12.95;;;11.30;93.20;;;;;;5093106;28;20107;-48
2022/09/26 21:41:11;;;;;;;22.88;13.80;;;11.30;93.10;;;;;;5093067;28;20083;-50
2022/09/26 21:43:41;;;;;;;27.38;12.68;;;11.30;93.20;;;;;;5093426;28;20124;-48
2022/09/26 21:46:07;;;;;;;26.05;14.35;;;11.30;93.30;;;;;;5092119;28;20078;-49
2022/09/26 21:48:33;;;;;;;22.38;13.15;;;11.30;93.20;;;;;;5092288;28;20356;-47
2022/09/26 21:50:59;;;;;;;26.58;13.30;;;11.30;93.30;;;;;;5093031;28;20016;-50
2022/09/26 21:53:37;;;;;;;26.17;14.77;;;11.30;93.40;;;;;;5092953;28;20054;-50
2022/09/26 21:56:09;;;;;;;24.85;15.25;;;11.30;93.60;;;;;;5092584;28;20020;-47
2022/09/26 21:58:39;;;;;;;32.50;17.27;;;11.30;93.70;;;;;;5092424;28;20020;-47
2022/09/26 22:01:05;;;;;;;35.67;15.27;;;11.30;93.70;;;;;;5092657;28;20052;-50
2022/09/26 22:03:31;;;;;;;31.13;17.17;;;11.30;93.60;;;;;;5092654;28;20529;-49
2022/09/26 22:05:56;;;;;;;32.00;18.10;;;11.30;93.60;;;;;;5092599;28;20130;-47
2022/09/26 22:08:22;;;;;;;33.78;17.83;;;11.30;93.60;;;;;;5092830;28;20339;-47
2022/09/26 22:10:51;;;;;;;32.28;17.98;;;11.30;93.70;;;;;;5093800;28;20038;-47
2022/09/26 22:13:17;;;;;;;39.85;17.92;;;11.20;93.60;;;;;;5096665;28;20020;-48
2022/09/26 22:15:43;;;;;;;35.60;17.83;;;11.20;93.60;;;;;;5096402;28;20099;-50
2022/09/26 22:18:09;;;;;;;38.67;19.45;;;11.20;93.70;;;;;;5094782;28;20043;-46
2022/09/26 22:20:34;;;;;;;33.03;19.15;;;11.30;93.60;;;;;;5095961;28;20468;-47
2022/09/26 22:23:00;;;;;;;33.05;18.00;;;11.30;93.60;;;;;;5095906;28;20020;-46
2022/09/26 22:25:26;;;;;;;36.67;19.27;;;11.30;93.50;;;;;;5095723;28;20512;-47
2022/09/26 22:27:51;;;;;;;33.25;19.45;;;11.30;93.50;;;;;;5096036;28;20459;-46
2022/09/26 22:30:17;;;;;;;43.08;22.45;;;11.20;93.50;;;;;;5094525;28;20111;-49
2022/09/26 22:32:43;;;;;;;37.92;18.50;;;11.30;93.60;;;;;;5095817;28;20449;-49
2022/09/26 22:35:08;;;;;;;35.20;18.58;;;11.30;93.50;;;;;;5096347;28;20040;-50
2022/09/26 22:37:34;;;;;;;31.48;17.00;;;11.30;93.40;;;;;;5095794;28;20426;-48
2022/09/26 22:40:00;;;;;;;25.90;16.00;;;11.30;93.40;;;;;;5095772;28;20110;-49
2022/09/26 22:42:25;;;;;;;35.55;16.67;;;11.30;93.30;;;;;;5095747;28;20055;-49
2022/09/26 22:44:51;;;;;;;24.13;13.98;;;11.30;93.20;;;;;;5095632;28;20078;-48
2022/09/26 22:47:17;;;;;;;22.75;12.73;;;11.30;93.30;;;;;;5094199;28;20051;-48
2022/09/26 22:49:42;;;;;;;17.50;11.70;;;11.30;93.40;;;;;;5095462;28;20042;-48
2022/09/26 22:52:08;;;;;;;13.82;6.63;;;11.20;93.50;;;;;;5095309;28;20024;-47
2022/09/26 22:54:33;;;;;;;6.53;4.25;;;11.10;93.30;;;;;;5095566;28;20039;-50
2022/09/26 22:56:59;;;;;;;10.18;5.47;;;11.10;93.00;;;;;;5095316;28;20024;-51
2022/09/26 22:59:25;;;;;;;8.07;4.53;;;11.00;93.00;;;;;;5095320;28;20028;-49
2022/09/26 23:01:50;;;;;;;9.65;4.95;;;11.00;92.80;;;;;;5095359;28;20028;-48
2022/09/26 23:04:16;;;;;;;7.32;4.75;;;11.00;92.70;;;;;;5095493;28;20502;-48
2022/09/26 23:06:42;;;;;;;11.15;5.43;;;10.90;92.90;;;;;;5094495;28;20055;-48
2022/09/26 23:09:07;;;;;;;6.55;4.68;;;10.90;92.80;;;;;;5095296;28;20021;-48
2022/09/26 23:11:33;;;;;;;14.05;5.10;;;10.90;92.90;;;;;;5095203;28;20028;-48
2022/09/26 23:13:59;;;;;;;8.52;4.63;;;10.80;92.80;;;;;;5094525;28;20050;-48
2022/09/26 23:16:27;;;;;;;7.75;3.70;;;10.90;92.90;;;;;;5095704;28;20455;-48
2022/09/26 23:18:53;;;;;;;9.75;4.35;;;10.80;92.70;;;;;;5095483;28;20107;-48
2022/09/26 23:21:24;;;;;;;9.52;4.28;;;10.80;92.60;;;;;;5094940;28;20075;-48
2022/09/26 23:23:53;;;;;;;11.15;3.38;;;10.80;92.50;;;;;;5093758;28;20395;-49
2022/09/26 23:26:26;;;;;;;10.47;2.97;;;10.80;92.60;;;;;;5095254;28;20051;-48
2022/09/26 23:28:53;;;;;;;6.10;2.33;;;10.80;92.50;;;;;;5093670;28;20377;-49
2022/09/26 23:31:19;;;;;;;9.90;3.08;;;10.80;92.50;;;;;;5094865;28;20482;-50
2022/09/26 23:33:45;;;;;;;13.38;2.60;;;10.80;92.50;;;;;;5095225;28;20032;-48
2022/09/26 23:36:12;;;;;;;6.38;2.08;;;10.80;92.60;;;;;;5095286;28;20039;-49
2022/09/26 23:38:38;;;;;;;4.50;2.40;;;10.70;92.50;;;;;;5094751;28;20028;-50
2022/09/26 23:41:06;;;;;;;11.30;2.72;;;10.60;92.60;;;;;;5094565;28;20046;-49
2022/09/26 23:43:31;;;;;;;9.88;2.10;;;10.70;92.70;;;;;;5095016;28;20034;-50
2022/09/26 23:45:57;;;;;;;8.02;2.38;;;10.70;92.60;;;;;;5094575;28;20020;-50
2022/09/26 23:48:23;;;;;;;10.90;2.75;;;10.60;92.50;;;;;;5094776;28;20028;-49
2022/09/26 23:50:48;;;;;;;11.43;2.60;;;10.60;92.70;;;;;;5093183;28;20024;-51
2022/09/26 23:53:15;;;;;;;9.93;3.50;;;10.60;92.70;;;;;;5094764;28;20023;-49
2022/09/26 23:55:41;;;;;;;10.85;2.67;;;10.60;92.80;;;;;;5094674;28;20075;-51
2022/09/26 23:58:07;;;;;;;12.18;3.60;;;10.60;92.90;;;;;;5094763;28;20036;-49
